createdAt,value
2022-08-22T00:00:20.649Z,88.51
2022-08-22T00:02:42.244Z,87.28
2022-08-22T00:02:43.675Z,87.49
2022-08-22T00:02:49.198Z,86.99
2022-08-22T00:06:02.095Z,88.50
2022-08-22T00:08:39.963Z,88.54
2022-08-22T00:11:07.348Z,88.57
2022-08-22T00:14:01.157Z,88.84
2022-08-22T00:16:57.775Z,88.73
2022-08-22T00:19:56.204Z,88.79
2022-08-22T00:22:33.777Z,88.74
2022-08-22T00:25:12.444Z,88.68
2022-08-22T00:28:00.558Z,88.46
2022-08-22T00:30:30.394Z,88.41
2022-08-22T00:33:02.622Z,88.55
2022-08-22T00:35:36.555Z,88.82
2022-08-22T00:38:10.421Z,88.96
2022-08-22T00:40:57.008Z,88.63
2022-08-22T00:43:39.774Z,88.78
2022-08-22T00:46:38.190Z,88.69
2022-08-22T00:49:05.595Z,88.52
2022-08-22T00:51:54.491Z,88.41
2022-08-22T00:54:38.543Z,88.30
2022-08-22T00:57:24.564Z,88.27
2022-08-22T01:00:14.209Z,88.39
2022-08-22T01:02:57.089Z,88.36
2022-08-22T01:05:46.983Z,88.44
2022-08-22T01:08:42.468Z,88.25
2022-08-22T01:11:31.852Z,88.39
2022-08-22T01:14:34.876Z,88.29
2022-08-22T01:17:06.506Z,88.13
2022-08-22T01:19:52.852Z,88.17
2022-08-22T01:22:51.082Z,87.97
2022-08-22T01:25:33.974Z,87.84
2022-08-22T01:28:27.470Z,87.81
2022-08-22T01:31:25.696Z,87.95
2022-08-22T01:34:23.784Z,88.04
2022-08-22T01:36:52.375Z,88.42
2022-08-22T01:39:38.721Z,88.77
2022-08-22T01:42:20.375Z,88.94
2022-08-22T01:44:48.939Z,89.19
2022-08-22T01:47:23.515Z,89.27
2022-08-22T01:49:56.141Z,89.43
2022-08-22T01:52:36.298Z,89.45
2022-08-22T01:55:09.487Z,89.39
2022-08-22T01:58:02.311Z,89.34
2022-08-22T02:00:35.262Z,89.02
2022-08-22T02:03:26.199Z,88.72
2022-08-22T02:06:00.033Z,88.90
2022-08-22T02:08:31.706Z,89.30
2022-08-22T02:11:09.190Z,89.50
2022-08-22T02:13:57.921Z,89.26
2022-08-22T02:16:35.462Z,88.93
2022-08-22T02:19:19.471Z,88.91
2022-08-22T02:21:47.075Z,88.74
2022-08-22T02:24:34.946Z,88.31
2022-08-22T02:27:13.290Z,88.12
2022-08-22T02:30:00.305Z,87.92
2022-08-22T02:32:36.522Z,87.73
2022-08-22T02:35:10.627Z,87.54
2022-08-22T02:37:55.595Z,87.45
2022-08-22T02:40:31.031Z,87.39
2022-08-22T02:43:10.109Z,87.44
2022-08-22T02:45:53.827Z,87.66
2022-08-22T02:48:36.562Z,87.80
2022-08-22T02:51:17.723Z,87.81
2022-08-22T02:54:16.973Z,87.67
2022-08-22T02:56:49.038Z,87.42
2022-08-22T02:59:17.580Z,87.32
2022-08-22T03:01:46.696Z,87.15
2022-08-22T03:04:37.409Z,87.29
2022-08-22T03:07:10.003Z,87.41
2022-08-22T03:10:00.141Z,87.55
2022-08-22T03:12:46.635Z,87.74
2022-08-22T03:15:26.114Z,87.94
2022-08-22T03:18:57.950Z,87.73
2022-08-22T03:21:32.134Z,87.79
2022-08-22T03:24:11.141Z,87.71
2022-08-22T03:26:39.672Z,87.61
2022-08-22T03:29:13.523Z,87.37
2022-08-22T03:32:00.607Z,87.18
2022-08-22T03:34:27.454Z,86.96
2022-08-22T03:37:07.630Z,86.85
2022-08-22T03:39:45.912Z,86.89
2022-08-22T03:42:22.392Z,86.69
2022-08-22T03:45:06.262Z,86.59
2022-08-22T03:48:05.599Z,86.54
2022-08-22T03:50:46.426Z,86.40
2022-08-22T03:53:45.555Z,86.26
2022-08-22T03:56:20.476Z,86.34
2022-08-22T03:59:10.122Z,86.11
2022-08-22T04:01:52.895Z,85.91
2022-08-22T04:04:35.773Z,85.66
2022-08-22T04:07:33.452Z,85.63
2022-08-22T04:10:23.635Z,85.87
2022-08-22T04:12:59.070Z,85.85
2022-08-22T04:15:52.900Z,85.92
2022-08-22T04:18:36.307Z,86.12
2022-08-22T04:21:22.537Z,86.20
2022-08-22T04:24:05.693Z,86.02
2022-08-22T04:26:48.490Z,86.00
2022-08-22T04:29:27.687Z,85.90
2022-08-22T04:32:15.373Z,85.79
2022-08-22T04:34:46.952Z,85.61
2022-08-22T04:37:20.649Z,85.62
2022-08-22T04:39:55.718Z,85.72
2022-08-22T04:42:47.987Z,85.68
2022-08-22T04:45:22.562Z,85.74
2022-08-22T04:47:54.283Z,85.64
2022-08-22T04:50:29.153Z,85.55
2022-08-22T04:53:03.917Z,85.37
2022-08-22T04:55:43.878Z,85.18
2022-08-22T04:58:38.298Z,85.09
2022-08-22T05:01:07.195Z,84.95
2022-08-22T05:03:44.380Z,84.84
2022-08-22T05:06:15.766Z,84.95
2022-08-22T05:08:46.297Z,84.95
2022-08-22T05:11:24.166Z,84.97
2022-08-22T05:14:01.209Z,84.99
2022-08-22T05:16:34.286Z,84.91
2022-08-22T05:19:07.597Z,84.92
2022-08-22T05:21:40.634Z,84.92
2022-08-22T05:24:14.271Z,84.87
2022-08-22T05:26:46.781Z,84.87
2022-08-22T05:29:19.725Z,84.49
2022-08-22T05:31:52.102Z,84.91
2022-08-22T05:34:24.020Z,84.97
2022-08-22T05:36:57.820Z,85.09
2022-08-22T05:39:28.090Z,84.94
2022-08-22T05:41:57.304Z,84.88
2022-08-22T05:44:28.280Z,84.64
2022-08-22T05:47:02.689Z,84.36
2022-08-22T05:49:38.920Z,84.10
2022-08-22T05:52:08.912Z,83.96
2022-08-22T05:54:49.227Z,83.99
2022-08-22T05:57:19.986Z,84.02
2022-08-22T05:59:53.963Z,84.12
2022-08-22T06:02:28.608Z,84.20
2022-08-22T06:05:01.132Z,84.12
2022-08-22T06:07:35.150Z,84.06
2022-08-22T06:10:15.577Z,84.21
2022-08-22T06:12:52.296Z,84.09
2022-08-22T06:15:27.568Z,84.16
2022-08-22T06:18:10.538Z,84.03
2022-08-22T06:20:48.119Z,83.86
2022-08-22T06:23:23.168Z,83.63
2022-08-22T06:25:52.146Z,83.55
2022-08-22T06:28:23.391Z,83.79
2022-08-22T06:30:54.287Z,83.70
2022-08-22T06:33:28.707Z,83.90
2022-08-22T06:36:21.152Z,83.67
2022-08-22T06:39:10.357Z,83.36
2022-08-22T06:41:42.994Z,83.07
2022-08-22T06:44:16.316Z,83.10
2022-08-22T06:46:46.681Z,83.21
2022-08-22T06:49:15.013Z,83.01
2022-08-22T06:51:43.217Z,83.23
2022-08-22T06:54:18.048Z,82.89
2022-08-22T06:56:49.181Z,82.66
2022-08-22T06:59:21.153Z,82.66
2022-08-22T07:02:03.739Z,82.47
2022-08-22T07:04:31.436Z,82.26
2022-08-22T07:07:01.345Z,82.32
2022-08-22T07:09:35.914Z,82.07
2022-08-22T07:12:14.598Z,82.26
2022-08-22T07:14:44.771Z,82.44
2022-08-22T07:17:21.810Z,82.20
2022-08-22T07:19:55.834Z,81.70
2022-08-22T07:22:30.933Z,81.31
2022-08-22T07:25:03.291Z,80.73
2022-08-22T07:27:48.918Z,80.71
2022-08-22T07:30:27.262Z,80.83
2022-08-22T07:33:18.962Z,80.85
2022-08-22T07:35:56.482Z,81.02
2022-08-22T07:38:24.258Z,80.97
2022-08-22T07:41:08.234Z,80.83
2022-08-22T07:43:38.717Z,80.94
2022-08-22T07:46:27.569Z,80.99
2022-08-22T07:49:09.158Z,81.20
2022-08-22T07:51:46.608Z,81.28
2022-08-22T07:54:22.131Z,81.18
2022-08-22T07:57:07.164Z,81.02
2022-08-22T07:59:38.392Z,80.81
2022-08-22T08:02:11.523Z,80.52
2022-08-22T08:04:40.839Z,80.32
2022-08-22T08:07:12.275Z,80.16
2022-08-22T08:09:46.080Z,80.23
2022-08-22T08:12:16.030Z,80.38
2022-08-22T08:14:50.221Z,80.29
2022-08-22T08:17:31.428Z,80.13
2022-08-22T08:20:03.732Z,79.64
2022-08-22T08:22:32.445Z,79.41
2022-08-22T08:25:01.185Z,79.23
2022-08-22T08:28:00.742Z,79.27
2022-08-22T08:30:54.598Z,79.26
2022-08-22T08:33:26.721Z,79.51
2022-08-22T08:36:16.984Z,79.13
2022-08-22T08:39:12.536Z,79.38
2022-08-22T08:41:59.037Z,79.60
2022-08-22T08:44:46.111Z,79.31
2022-08-22T08:47:30.194Z,79.24
2022-08-22T08:50:12.982Z,79.10
2022-08-22T08:53:09.665Z,78.66
2022-08-22T08:55:59.270Z,78.15
2022-08-22T08:58:44.271Z,77.05
2022-08-22T09:01:29.712Z,77.65
2022-08-22T09:04:28.576Z,77.61
2022-08-22T09:07:01.579Z,77.27
2022-08-22T09:09:54.234Z,77.37
2022-08-22T09:12:43.407Z,76.48
2022-08-22T09:15:31.633Z,75.36
2022-08-22T09:18:28.049Z,75.22
2022-08-22T09:21:11.001Z,74.70
2022-08-22T09:23:42.694Z,74.23
2022-08-22T09:26:19.745Z,73.79
2022-08-22T09:29:16.725Z,74.00
2022-08-22T09:32:00.329Z,73.54
2022-08-22T09:34:38.143Z,73.77
2022-08-22T09:37:22.722Z,74.56
2022-08-22T09:40:17.326Z,75.13
2022-08-22T09:43:03.509Z,75.19
2022-08-22T09:45:50.104Z,74.97
2022-08-22T09:48:31.866Z,75.12
2022-08-22T09:51:13.634Z,75.40
2022-08-22T09:54:05.988Z,74.62
2022-08-22T09:56:39.772Z,73.96
2022-08-22T09:59:15.731Z,73.91
2022-08-22T10:01:53.993Z,72.57
2022-08-22T10:04:53.639Z,72.62
2022-08-22T10:07:28.167Z,73.39
2022-08-22T10:09:55.983Z,73.08
2022-08-22T10:12:35.138Z,72.87
2022-08-22T10:15:09.887Z,73.41
2022-08-22T10:17:43.533Z,73.45
2022-08-22T10:20:25.131Z,73.68
2022-08-22T10:23:08.413Z,73.04
2022-08-22T10:25:56.154Z,74.09
2022-08-22T10:28:47.286Z,74.46
2022-08-22T10:31:34.963Z,74.24
2022-08-22T10:34:28.740Z,73.98
2022-08-22T10:37:17.255Z,74.03
2022-08-22T10:40:14.801Z,74.09
2022-08-22T10:42:49.924Z,74.00
2022-08-22T10:45:35.632Z,74.34
2022-08-22T10:48:09.033Z,74.03
2022-08-22T10:50:47.025Z,73.52
2022-08-22T10:53:46.428Z,73.13
2022-08-22T10:56:21.491Z,72.88
2022-08-22T10:58:56.491Z,73.23
2022-08-22T11:01:37.617Z,73.36
2022-08-22T11:04:29.706Z,73.38
2022-08-22T11:07:21.883Z,73.11
2022-08-22T11:09:58.859Z,72.90
2022-08-22T11:12:41.706Z,73.99
2022-08-22T11:15:26.200Z,74.56
2022-08-22T11:18:14.814Z,73.15
2022-08-22T11:20:50.379Z,72.90
2022-08-22T11:23:23.761Z,73.20
2022-08-22T11:26:06.365Z,73.27
2022-08-22T11:29:13.245Z,72.97
2022-08-22T11:32:05.752Z,73.24
2022-08-22T11:34:47.986Z,75.23
2022-08-22T11:37:42.431Z,76.29
2022-08-22T11:40:28.003Z,75.06
2022-08-22T11:43:16.301Z,75.56
2022-08-22T11:45:57.172Z,74.02
2022-08-22T11:48:39.253Z,74.02
2022-08-22T11:51:15.654Z,74.42
2022-08-22T11:53:51.188Z,74.19
2022-08-22T11:56:45.237Z,73.33
2022-08-22T11:59:28.176Z,72.95
2022-08-22T12:02:01.471Z,71.57
2022-08-22T12:04:48.203Z,71.14
2022-08-22T12:07:27.916Z,68.89
2022-08-22T12:10:05.135Z,68.87
2022-08-22T12:12:52.314Z,69.62
2022-08-22T12:15:33.192Z,69.84
2022-08-22T12:18:17.905Z,67.85
2022-08-22T12:20:50.028Z,67.04
2022-08-22T12:23:22.046Z,65.67
2022-08-22T12:26:40.662Z,62.64
2022-08-22T12:29:45.081Z,60.36
2022-08-22T12:32:35.802Z,62.36
2022-08-22T12:35:20.061Z,63.06
2022-08-22T12:38:28.121Z,63.32
2022-08-22T12:41:28.289Z,61.86
2022-08-22T12:44:37.173Z,62.12
2022-08-22T12:47:35.354Z,63.97
2022-08-22T12:50:26.729Z,64.52
2022-08-22T12:53:21.395Z,64.25
2022-08-22T12:55:57.605Z,63.77
2022-08-22T12:58:41.293Z,63.56
2022-08-22T13:01:11.215Z,62.98
2022-08-22T13:03:47.585Z,63.36
2022-08-22T13:06:37.945Z,63.32
2022-08-22T13:09:19.668Z,63.58
2022-08-22T13:11:53.662Z,63.87
2022-08-22T13:14:28.369Z,63.89
2022-08-22T13:16:59.666Z,63.87
2022-08-22T13:19:32.386Z,62.21
2022-08-22T13:22:10.079Z,59.61
2022-08-22T13:24:51.702Z,59.01
2022-08-22T13:27:26.029Z,58.74
2022-08-22T13:30:02.286Z,56.96
2022-08-22T13:32:39.330Z,55.98
2022-08-22T13:35:23.863Z,54.07
2022-08-22T13:37:58.611Z,53.37
2022-08-22T13:40:30.948Z,53.44
2022-08-22T13:43:05.786Z,53.48
2022-08-22T13:45:35.949Z,53.64
2022-08-22T13:48:11.413Z,54.42
2022-08-22T13:51:14.561Z,53.26
2022-08-22T13:53:49.917Z,52.57
2022-08-22T13:56:39.177Z,52.44
2022-08-22T13:59:49.640Z,53.20
2022-08-22T14:02:34.187Z,56.06
2022-08-22T14:05:08.929Z,57.05
2022-08-22T14:07:46.089Z,57.75
2022-08-22T14:10:29.491Z,58.68
2022-08-22T14:12:56.897Z,59.72
2022-08-22T14:15:32.249Z,59.17
2022-08-22T14:18:16.920Z,59.46
2022-08-22T14:20:47.691Z,59.74
2022-08-22T14:23:27.037Z,60.21
2022-08-22T14:25:55.418Z,61.43
2022-08-22T14:28:28.927Z,62.13
2022-08-22T14:31:02.663Z,63.10
2022-08-22T14:33:40.094Z,64.53
2022-08-22T14:36:18.036Z,65.35
2022-08-22T14:38:51.813Z,66.64
2022-08-22T14:41:56.078Z,67.74
2022-08-22T14:44:33.402Z,68.73
2022-08-22T14:47:04.329Z,68.73
2022-08-22T14:50:00.158Z,70.17
2022-08-22T14:52:38.630Z,71.83
2022-08-22T14:55:15.878Z,72.40
2022-08-22T14:57:50.601Z,73.12
2022-08-22T15:00:28.700Z,73.71
2022-08-22T15:03:14.034Z,74.56
2022-08-22T15:05:49.519Z,75.41
2022-08-22T15:08:24.308Z,75.48
2022-08-22T15:11:17.958Z,75.55
2022-08-22T15:14:03.013Z,75.81
2022-08-22T15:16:42.012Z,76.24
2022-08-22T15:19:41.310Z,76.24
2022-08-22T15:22:08.876Z,76.98
2022-08-22T15:24:45.263Z,77.17
2022-08-22T15:27:19.387Z,76.99
2022-08-22T15:29:52.730Z,77.48
2022-08-22T15:32:22.332Z,77.91
2022-08-22T15:34:52.322Z,78.10
2022-08-22T15:37:20.065Z,77.90
2022-08-22T15:40:08.481Z,77.99
2022-08-22T15:42:45.576Z,78.35
2022-08-22T15:45:37.797Z,77.93
2022-08-22T15:48:10.678Z,78.03
2022-08-22T15:50:54.950Z,78.22
2022-08-22T15:53:26.667Z,78.49
2022-08-22T15:56:19.816Z,78.68
2022-08-22T15:58:53.134Z,78.79
2022-08-22T16:01:24.398Z,78.78
2022-08-22T16:04:03.317Z,78.79
2022-08-22T16:06:46.705Z,78.41
2022-08-22T16:09:30.181Z,78.57
2022-08-22T16:12:00.857Z,78.52
2022-08-22T16:14:36.089Z,78.35
2022-08-22T16:17:08.240Z,78.73
2022-08-22T16:19:35.935Z,78.97
2022-08-22T16:22:07.685Z,79.07
2022-08-22T16:24:57.233Z,79.08
2022-08-22T16:27:26.570Z,79.34
2022-08-22T16:30:07.663Z,79.15
2022-08-22T16:32:35.300Z,79.20
2022-08-22T16:35:02.149Z,78.85
2022-08-22T16:37:47.438Z,78.43
2022-08-22T16:40:21.163Z,78.71
2022-08-22T16:43:08.247Z,78.98
2022-08-22T16:45:40.788Z,78.94
2022-08-22T16:48:24.040Z,77.72
2022-08-22T16:51:10.000Z,77.31
2022-08-22T16:53:38.466Z,76.28
2022-08-22T16:56:20.189Z,76.20
2022-08-22T16:59:23.514Z,75.72
2022-08-22T17:02:07.015Z,75.27
2022-08-22T17:04:37.953Z,75.27
2022-08-22T17:07:11.723Z,74.86
2022-08-22T17:10:03.214Z,74.88
2022-08-22T17:12:54.283Z,75.20
2022-08-22T17:15:25.052Z,75.19
2022-08-22T17:17:56.983Z,74.98
2022-08-22T17:20:39.618Z,75.17
2022-08-22T17:23:25.622Z,75.43
2022-08-22T17:26:07.824Z,75.30
2022-08-22T17:28:56.377Z,75.56
2022-08-22T17:31:54.579Z,75.89
2022-08-22T17:34:32.835Z,76.26
2022-08-22T17:37:06.607Z,76.74
2022-08-22T17:39:38.571Z,77.25
2022-08-22T17:42:21.613Z,77.66
2022-08-22T17:45:07.995Z,77.93
2022-08-22T17:47:55.271Z,78.07
2022-08-22T17:50:32.505Z,78.43
2022-08-22T17:53:07.425Z,78.78
2022-08-22T17:55:55.132Z,79.21
2022-08-22T17:58:37.519Z,79.68
2022-08-22T18:01:20.315Z,79.93
2022-08-22T18:03:58.247Z,80.26
2022-08-22T18:06:33.005Z,80.69
2022-08-22T18:09:20.616Z,80.93
2022-08-22T18:11:52.250Z,80.64
2022-08-22T18:14:30.068Z,80.34
2022-08-22T18:16:59.549Z,80.18
2022-08-22T18:19:42.380Z,80.17
2022-08-22T18:22:20.096Z,80.31
2022-08-22T18:24:57.791Z,80.39
2022-08-22T18:27:34.118Z,80.22
2022-08-22T18:30:14.651Z,80.40
2022-08-22T18:32:57.540Z,80.61
2022-08-22T18:35:31.411Z,80.87
2022-08-22T18:37:59.040Z,81.20
2022-08-22T18:40:33.690Z,81.31
2022-08-22T18:43:18.449Z,81.50
2022-08-22T18:45:47.020Z,81.87
2022-08-22T18:48:29.853Z,81.85
2022-08-22T18:51:24.665Z,81.94
2022-08-22T18:54:12.640Z,82.12
2022-08-22T18:56:57.783Z,81.97
2022-08-22T18:59:40.575Z,82.07
2022-08-22T19:02:24.444Z,82.16
2022-08-22T19:05:07.433Z,82.28
2022-08-22T19:07:36.102Z,82.56
2022-08-22T19:10:04.674Z,82.73
2022-08-22T19:13:03.483Z,82.87
2022-08-22T19:15:48.578Z,83.09
2022-08-22T19:18:38.307Z,83.26
2022-08-22T19:21:37.747Z,83.22
2022-08-22T19:24:09.487Z,83.32
2022-08-22T19:26:43.120Z,83.40
2022-08-22T19:29:17.690Z,83.35
2022-08-22T19:31:50.797Z,83.34
2022-08-22T19:34:36.055Z,83.19
2022-08-22T19:37:32.256Z,83.36
2022-08-22T19:40:07.504Z,83.48
2022-08-22T19:42:38.339Z,83.64
2022-08-22T19:45:17.117Z,83.73
2022-08-22T19:47:55.470Z,83.79
2022-08-22T19:50:23.757Z,83.65
2022-08-22T19:52:55.069Z,83.78
2022-08-22T19:55:38.215Z,83.71
2022-08-22T19:58:32.802Z,83.78
2022-08-22T20:01:10.762Z,83.62
2022-08-22T20:03:53.489Z,83.70
2022-08-22T20:06:42.951Z,83.65
2022-08-22T20:09:25.671Z,83.62
2022-08-22T20:12:03.921Z,83.44
2022-08-22T20:14:34.978Z,83.45
2022-08-22T20:17:09.285Z,83.37
2022-08-22T20:22:39.659Z,83.21
2022-08-22T20:25:41.772Z,83.35
2022-08-22T20:28:08.690Z,83.38
2022-08-22T20:30:47.075Z,83.38
2022-08-22T20:33:24.327Z,83.54
2022-08-22T20:35:55.905Z,83.77
2022-08-22T20:38:32.477Z,84.06
2022-08-22T20:41:20.957Z,84.27
2022-08-22T20:43:53.184Z,84.52
2022-08-22T20:46:35.221Z,84.64
2022-08-22T20:49:02.900Z,84.94
2022-08-22T20:51:32.384Z,85.20
2022-08-22T20:54:10.176Z,85.16
2022-08-22T20:56:53.022Z,85.56
2022-08-22T20:59:39.456Z,85.86
2022-08-22T21:02:20.888Z,86.23
2022-08-22T21:04:57.082Z,86.61
2022-08-22T21:07:28.933Z,86.73
2022-08-22T21:10:20.269Z,85.29
2022-08-22T21:13:07.469Z,84.51
2022-08-22T21:15:38.848Z,84.79
2022-08-22T21:18:06.738Z,85.21
2022-08-22T21:20:37.230Z,85.66
2022-08-22T21:23:10.741Z,86.10
2022-08-22T21:25:57.296Z,86.82
2022-08-22T21:28:28.257Z,86.97
2022-08-22T21:30:55.814Z,87.39
2022-08-22T21:33:25.463Z,87.50
2022-08-22T21:35:59.419Z,87.52
2022-08-22T21:38:27.231Z,87.63
2022-08-22T21:41:01.311Z,87.68
2022-08-22T21:43:33.743Z,87.92
2022-08-22T21:46:00.909Z,88.06
2022-08-22T21:48:44.238Z,87.91
2022-08-22T21:51:26.899Z,87.60
2022-08-22T21:54:22.277Z,87.57
2022-08-22T21:56:51.189Z,87.37
2022-08-22T21:59:21.389Z,87.10
2022-08-22T22:01:52.345Z,87.04
2022-08-22T22:04:19.176Z,86.99
2022-08-22T22:06:45.994Z,86.83
2022-08-22T22:09:15.284Z,86.94
2022-08-22T22:11:42.313Z,86.76
2022-08-22T22:14:09.455Z,86.86
2022-08-22T22:16:36.351Z,87.15
2022-08-22T22:19:07.261Z,86.88
2022-08-22T22:21:34.430Z,86.81
2022-08-22T22:24:01.667Z,87.01
2022-08-22T22:26:28.912Z,86.92
2022-08-22T22:28:58.734Z,87.11
2022-08-22T22:31:26.085Z,87.24
2022-08-22T22:33:53.004Z,87.25
2022-08-22T22:36:24.152Z,87.10
2022-08-22T22:38:52.713Z,87.13
2022-08-22T22:41:23.505Z,87.44
2022-08-22T22:43:50.656Z,87.66
2022-08-22T22:46:17.534Z,87.86
2022-08-22T22:48:44.447Z,87.71
2022-08-22T22:51:12.460Z,87.74
2022-08-22T22:53:44.229Z,87.27
2022-08-22T22:56:14.089Z,87.31
2022-08-22T22:58:43.526Z,86.94
2022-08-22T23:01:15.410Z,86.59
2022-08-22T23:03:43.420Z,86.23
2022-08-22T23:06:14.751Z,86.19
2022-08-22T23:08:42.414Z,85.69
2022-08-22T23:11:12.970Z,85.75
2022-08-22T23:13:43.064Z,85.69
2022-08-22T23:16:14.346Z,85.87
2022-08-22T23:18:42.487Z,85.77
2022-08-22T23:21:12.578Z,86.11
2022-08-22T23:23:39.508Z,86.28
2022-08-22T23:26:06.537Z,86.25
2022-08-22T23:28:33.537Z,86.40
2022-08-22T23:31:16.516Z,86.62
2022-08-22T23:33:44.765Z,86.37
2022-08-22T23:36:16.645Z,86.46
2022-08-22T23:38:45.615Z,86.62
2022-08-22T23:41:15.415Z,86.51
2022-08-22T23:43:46.578Z,86.51
2022-08-22T23:46:16.957Z,86.32
2022-08-22T23:48:44.342Z,86.52
2022-08-22T23:51:13.211Z,86.47
2022-08-22T23:53:41.726Z,86.85
2022-08-22T23:56:21.831Z,86.82
2022-08-22T23:58:50.636Z,87.15
